sensor_id;sensor_type;location;lat;lon;timestamp;P1;durP1;ratioP1;P2;durP2;ratioP2
59089;SDS011;44878;50.102;18.982;2023-03-14T00:00:59;4.72;;;2.80;;
59089;SDS011;44878;50.102;18.982;2023-03-14T00:03:24;5.85;;;3.10;;
59089;SDS011;44878;50.102;18.982;2023-03-14T00:05:50;5.10;;;3.17;;
59089;SDS011;44878;50.102;18.982;2023-03-14T00:08:16;5.03;;;3.08;;
59089;SDS011;44878;50.102;18.982;2023-03-14T00:10:43;7.97;;;3.40;;
59089;SDS011;44878;50.102;18.982;2023-03-14T00:13:09;6.10;;;3.30;;
59089;SDS011;44878;50.102;18.982;2023-03-14T00:15:35;4.50;;;3.03;;
59089;SDS011;44878;50.102;18.982;2023-03-14T00:18:01;5.57;;;3.33;;
59089;SDS011;44878;50.102;18.982;2023-03-14T00:20:27;6.82;;;3.08;;
59089;SDS011;44878;50.102;18.982;2023-03-14T00:22:53;5.32;;;3.38;;
59089;SDS011;44878;50.102;18.982;2023-03-14T00:25:19;5.93;;;2.83;;
59089;SDS011;44878;50.102;18.982;2023-03-14T00:27:44;5.85;;;3.28;;
59089;SDS011;44878;50.102;18.982;2023-03-14T00:30:10;5.50;;;2.90;;
59089;SDS011;44878;50.102;18.982;2023-03-14T00:32:36;5.55;;;2.97;;
59089;SDS011;44878;50.102;18.982;2023-03-14T00:35:03;4.95;;;2.60;;
59089;SDS011;44878;50.102;18.982;2023-03-14T00:37:28;5.25;;;2.70;;
59089;SDS011;44878;50.102;18.982;2023-03-14T00:39:55;7.18;;;3.15;;
59089;SDS011;44878;50.102;18.982;2023-03-14T00:42:20;5.80;;;3.08;;
59089;SDS011;44878;50.102;18.982;2023-03-14T00:44:46;5.63;;;3.13;;
59089;SDS011;44878;50.102;18.982;2023-03-14T00:47:15;5.65;;;3.05;;
59089;SDS011;44878;50.102;18.982;2023-03-14T00:49:41;5.88;;;3.15;;
59089;SDS011;44878;50.102;18.982;2023-03-14T00:52:09;5.97;;;2.70;;
59089;SDS011;44878;50.102;18.982;2023-03-14T00:54:35;4.60;;;2.90;;
59089;SDS011;44878;50.102;18.982;2023-03-14T00:57:00;4.22;;;2.60;;
59089;SDS011;44878;50.102;18.982;2023-03-14T00:59:26;6.47;;;3.60;;
59089;SDS011;44878;50.102;18.982;2023-03-14T01:01:52;4.57;;;3.00;;
59089;SDS011;44878;50.102;18.982;2023-03-14T01:04:18;5.28;;;3.13;;
59089;SDS011;44878;50.102;18.982;2023-03-14T01:06:44;6.15;;;4.65;;
59089;SDS011;44878;50.102;18.982;2023-03-14T01:09:10;7.47;;;4.97;;
59089;SDS011;44878;50.102;18.982;2023-03-14T01:11:35;8.07;;;5.57;;
59089;SDS011;44878;50.102;18.982;2023-03-14T01:14:02;8.35;;;5.72;;
59089;SDS011;44878;50.102;18.982;2023-03-14T01:16:29;7.40;;;5.40;;
59089;SDS011;44878;50.102;18.982;2023-03-14T01:18:56;7.05;;;5.22;;
59089;SDS011;44878;50.102;18.982;2023-03-14T01:21:23;9.57;;;6.03;;
59089;SDS011;44878;50.102;18.982;2023-03-14T01:23:49;7.60;;;4.78;;
59089;SDS011;44878;50.102;18.982;2023-03-14T01:26:16;6.50;;;4.55;;
59089;SDS011;44878;50.102;18.982;2023-03-14T01:28:44;9.65;;;5.78;;
59089;SDS011;44878;50.102;18.982;2023-03-14T01:31:14;9.45;;;7.40;;
59089;SDS011;44878;50.102;18.982;2023-03-14T01:33:40;9.30;;;6.53;;
59089;SDS011;44878;50.102;18.982;2023-03-14T01:36:06;10.82;;;8.02;;
59089;SDS011;44878;50.102;18.982;2023-03-14T01:38:35;13.77;;;9.57;;
59089;SDS011;44878;50.102;18.982;2023-03-14T01:43:28;25.45;;;15.65;;
59089;SDS011;44878;50.102;18.982;2023-03-14T01:48:42;18.10;;;13.77;;
59089;SDS011;44878;50.102;18.982;2023-03-14T01:51:10;17.63;;;13.00;;
59089;SDS011;44878;50.102;18.982;2023-03-14T01:53:37;20.85;;;12.60;;
59089;SDS011;44878;50.102;18.982;2023-03-14T01:56:04;16.27;;;11.25;;
59089;SDS011;44878;50.102;18.982;2023-03-14T01:58:33;14.57;;;10.75;;
59089;SDS011;44878;50.102;18.982;2023-03-14T02:01:02;20.08;;;13.23;;
59089;SDS011;44878;50.102;18.982;2023-03-14T02:03:29;17.15;;;12.60;;
59089;SDS011;44878;50.102;18.982;2023-03-14T02:05:56;17.42;;;11.27;;
59089;SDS011;44878;50.102;18.982;2023-03-14T02:08:25;17.58;;;13.35;;
59089;SDS011;44878;50.102;18.982;2023-03-14T02:10:55;18.42;;;13.27;;
59089;SDS011;44878;50.102;18.982;2023-03-14T02:13:22;18.38;;;12.95;;
59089;SDS011;44878;50.102;18.982;2023-03-14T02:15:48;18.02;;;13.55;;
59089;SDS011;44878;50.102;18.982;2023-03-14T02:18:14;16.13;;;12.52;;
59089;SDS011;44878;50.102;18.982;2023-03-14T02:20:47;15.17;;;12.40;;
59089;SDS011;44878;50.102;18.982;2023-03-14T02:23:16;14.73;;;11.27;;
59089;SDS011;44878;50.102;18.982;2023-03-14T02:28:13;14.30;;;9.50;;
59089;SDS011;44878;50.102;18.982;2023-03-14T02:30:39;10.90;;;8.23;;
59089;SDS011;44878;50.102;18.982;2023-03-14T02:33:24;11.53;;;7.50;;
59089;SDS011;44878;50.102;18.982;2023-03-14T02:35:51;12.87;;;9.03;;
59089;SDS011;44878;50.102;18.982;2023-03-14T02:38:19;14.13;;;8.43;;
59089;SDS011;44878;50.102;18.982;2023-03-14T02:40:46;12.77;;;8.32;;
59089;SDS011;44878;50.102;18.982;2023-03-14T02:43:12;10.27;;;7.80;;
59089;SDS011;44878;50.102;18.982;2023-03-14T02:45:42;10.83;;;7.30;;
59089;SDS011;44878;50.102;18.982;2023-03-14T02:48:13;10.13;;;7.37;;
59089;SDS011;44878;50.102;18.982;2023-03-14T02:50:39;13.10;;;7.97;;
59089;SDS011;44878;50.102;18.982;2023-03-14T02:53:05;10.13;;;7.43;;
59089;SDS011;44878;50.102;18.982;2023-03-14T02:55:31;11.10;;;7.97;;
59089;SDS011;44878;50.102;18.982;2023-03-14T02:57:57;11.10;;;8.37;;
59089;SDS011;44878;50.102;18.982;2023-03-14T03:00:26;13.17;;;8.83;;
59089;SDS011;44878;50.102;18.982;2023-03-14T03:02:53;11.93;;;8.60;;
59089;SDS011;44878;50.102;18.982;2023-03-14T03:05:18;11.30;;;8.20;;
59089;SDS011;44878;50.102;18.982;2023-03-14T03:07:44;9.60;;;7.70;;
59089;SDS011;44878;50.102;18.982;2023-03-14T03:10:10;12.50;;;8.20;;
59089;SDS011;44878;50.102;18.982;2023-03-14T03:12:36;10.23;;;6.80;;
59089;SDS011;44878;50.102;18.982;2023-03-14T03:15:02;9.30;;;7.37;;
59089;SDS011;44878;50.102;18.982;2023-03-14T03:17:28;9.30;;;6.87;;
59089;SDS011;44878;50.102;18.982;2023-03-14T03:19:54;10.10;;;7.17;;
59089;SDS011;44878;50.102;18.982;2023-03-14T03:22:20;10.77;;;6.90;;
59089;SDS011;44878;50.102;18.982;2023-03-14T03:24:46;10.13;;;6.47;;
59089;SDS011;44878;50.102;18.982;2023-03-14T03:27:12;10.27;;;6.30;;
59089;SDS011;44878;50.102;18.982;2023-03-14T03:29:37;8.87;;;5.70;;
59089;SDS011;44878;50.102;18.982;2023-03-14T03:32:03;8.20;;;5.50;;
59089;SDS011;44878;50.102;18.982;2023-03-14T03:34:29;9.03;;;5.20;;
59089;SDS011;44878;50.102;18.982;2023-03-14T03:36:56;6.35;;;4.07;;
59089;SDS011;44878;50.102;18.982;2023-03-14T03:39:22;7.50;;;5.10;;
59089;SDS011;44878;50.102;18.982;2023-03-14T03:41:48;7.75;;;4.95;;
59089;SDS011;44878;50.102;18.982;2023-03-14T03:44:13;7.18;;;4.70;;
59089;SDS011;44878;50.102;18.982;2023-03-14T03:46:39;5.88;;;4.22;;
59089;SDS011;44878;50.102;18.982;2023-03-14T03:49:05;7.50;;;3.97;;
59089;SDS011;44878;50.102;18.982;2023-03-14T03:51:34;5.13;;;3.57;;
59089;SDS011;44878;50.102;18.982;2023-03-14T03:54:00;7.35;;;3.90;;
59089;SDS011;44878;50.102;18.982;2023-03-14T03:56:26;6.32;;;4.00;;
59089;SDS011;44878;50.102;18.982;2023-03-14T03:58:51;4.55;;;3.20;;
59089;SDS011;44878;50.102;18.982;2023-03-14T04:01:17;7.95;;;3.28;;
59089;SDS011;44878;50.102;18.982;2023-03-14T04:03:43;5.65;;;3.35;;
59089;SDS011;44878;50.102;18.982;2023-03-14T04:06:10;5.50;;;3.30;;
59089;SDS011;44878;50.102;18.982;2023-03-14T04:08:36;6.93;;;3.53;;
59089;SDS011;44878;50.102;18.982;2023-03-14T04:11:03;5.05;;;3.30;;
59089;SDS011;44878;50.102;18.982;2023-03-14T04:13:29;4.80;;;3.13;;
59089;SDS011;44878;50.102;18.982;2023-03-14T04:15:55;5.95;;;3.40;;
59089;SDS011;44878;50.102;18.982;2023-03-14T04:18:21;6.25;;;3.15;;
59089;SDS011;44878;50.102;18.982;2023-03-14T04:20:51;8.18;;;4.15;;
59089;SDS011;44878;50.102;18.982;2023-03-14T04:23:17;6.43;;;3.60;;
59089;SDS011;44878;50.102;18.982;2023-03-14T04:25:43;6.93;;;3.70;;
59089;SDS011;44878;50.102;18.982;2023-03-14T04:28:08;5.10;;;3.20;;
59089;SDS011;44878;50.102;18.982;2023-03-14T04:30:34;5.28;;;3.30;;
59089;SDS011;44878;50.102;18.982;2023-03-14T04:33:00;4.72;;;3.13;;
59089;SDS011;44878;50.102;18.982;2023-03-14T04:35:27;6.27;;;3.53;;
59089;SDS011;44878;50.102;18.982;2023-03-14T04:37:53;6.13;;;3.65;;
59089;SDS011;44878;50.102;18.982;2023-03-14T04:40:19;5.80;;;3.20;;
59089;SDS011;44878;50.102;18.982;2023-03-14T04:42:45;6.25;;;3.55;;
59089;SDS011;44878;50.102;18.982;2023-03-14T04:45:11;4.60;;;3.58;;
59089;SDS011;44878;50.102;18.982;2023-03-14T04:47:37;5.00;;;3.30;;
59089;SDS011;44878;50.102;18.982;2023-03-14T04:50:03;6.68;;;3.47;;
59089;SDS011;44878;50.102;18.982;2023-03-14T04:52:29;6.82;;;3.47;;
59089;SDS011;44878;50.102;18.982;2023-03-14T04:54:55;5.70;;;3.53;;
59089;SDS011;44878;50.102;18.982;2023-03-14T04:57:21;7.78;;;3.70;;
59089;SDS011;44878;50.102;18.982;2023-03-14T04:59:47;7.70;;;3.72;;
59089;SDS011;44878;50.102;18.982;2023-03-14T05:02:16;7.95;;;3.40;;
59089;SDS011;44878;50.102;18.982;2023-03-14T05:04:42;6.00;;;3.97;;
59089;SDS011;44878;50.102;18.982;2023-03-14T05:07:07;6.32;;;4.13;;
59089;SDS011;44878;50.102;18.982;2023-03-14T05:09:33;11.32;;;8.65;;
59089;SDS011;44878;50.102;18.982;2023-03-14T05:11:59;10.48;;;7.82;;
59089;SDS011;44878;50.102;18.982;2023-03-14T05:14:25;8.55;;;3.72;;
59089;SDS011;44878;50.102;18.982;2023-03-14T05:16:51;7.63;;;4.28;;
59089;SDS011;44878;50.102;18.982;2023-03-14T05:19:17;6.47;;;4.05;;
59089;SDS011;44878;50.102;18.982;2023-03-14T05:21:42;5.78;;;3.97;;
59089;SDS011;44878;50.102;18.982;2023-03-14T05:24:08;7.60;;;4.60;;
59089;SDS011;44878;50.102;18.982;2023-03-14T05:26:34;7.38;;;3.58;;
59089;SDS011;44878;50.102;18.982;2023-03-14T05:29:01;7.10;;;4.40;;
59089;SDS011;44878;50.102;18.982;2023-03-14T05:31:27;6.22;;;3.72;;
59089;SDS011;44878;50.102;18.982;2023-03-14T05:33:53;6.65;;;3.95;;
59089;SDS011;44878;50.102;18.982;2023-03-14T05:36:19;7.18;;;3.60;;
59089;SDS011;44878;50.102;18.982;2023-03-14T05:38:45;5.43;;;3.85;;
59089;SDS011;44878;50.102;18.982;2023-03-14T05:41:12;6.40;;;4.10;;
59089;SDS011;44878;50.102;18.982;2023-03-14T05:43:38;6.88;;;4.13;;
59089;SDS011;44878;50.102;18.982;2023-03-14T05:46:04;5.97;;;3.58;;
59089;SDS011;44878;50.102;18.982;2023-03-14T05:48:32;7.35;;;3.90;;
59089;SDS011;44878;50.102;18.982;2023-03-14T05:50:58;6.55;;;3.60;;
59089;SDS011;44878;50.102;18.982;2023-03-14T05:53:25;8.07;;;4.10;;
59089;SDS011;44878;50.102;18.982;2023-03-14T05:55:51;6.63;;;4.10;;
59089;SDS011;44878;50.102;18.982;2023-03-14T05:58:17;5.28;;;4.18;;
59089;SDS011;44878;50.102;18.982;2023-03-14T06:00:43;8.10;;;4.40;;
59089;SDS011;44878;50.102;18.982;2023-03-14T06:03:09;6.50;;;3.83;;
59089;SDS011;44878;50.102;18.982;2023-03-14T06:05:35;5.47;;;4.00;;
59089;SDS011;44878;50.102;18.982;2023-03-14T06:08:04;5.65;;;3.38;;
59089;SDS011;44878;50.102;18.982;2023-03-14T06:10:29;6.13;;;3.88;;
59089;SDS011;44878;50.102;18.982;2023-03-14T06:12:55;9.40;;;3.80;;
59089;SDS011;44878;50.102;18.982;2023-03-14T06:15:21;6.95;;;3.95;;
59089;SDS011;44878;50.102;18.982;2023-03-14T06:17:47;6.85;;;4.25;;
59089;SDS011;44878;50.102;18.982;2023-03-14T06:20:13;7.15;;;4.10;;
59089;SDS011;44878;50.102;18.982;2023-03-14T06:22:39;6.30;;;4.05;;
59089;SDS011;44878;50.102;18.982;2023-03-14T06:25:06;5.40;;;4.22;;
59089;SDS011;44878;50.102;18.982;2023-03-14T06:27:32;7.40;;;4.15;;
59089;SDS011;44878;50.102;18.982;2023-03-14T06:29:58;8.07;;;4.95;;
59089;SDS011;44878;50.102;18.982;2023-03-14T06:32:24;6.60;;;4.28;;
59089;SDS011;44878;50.102;18.982;2023-03-14T06:34:50;8.70;;;4.70;;
59089;SDS011;44878;50.102;18.982;2023-03-14T06:37:16;6.40;;;3.88;;
59089;SDS011;44878;50.102;18.982;2023-03-14T06:39:41;7.65;;;4.15;;
59089;SDS011;44878;50.102;18.982;2023-03-14T06:44:35;7.18;;;4.30;;
59089;SDS011;44878;50.102;18.982;2023-03-14T06:47:01;7.47;;;4.63;;
59089;SDS011;44878;50.102;18.982;2023-03-14T06:49:27;5.97;;;4.15;;
59089;SDS011;44878;50.102;18.982;2023-03-14T06:51:53;6.20;;;4.18;;
59089;SDS011;44878;50.102;18.982;2023-03-14T06:54:18;6.50;;;4.35;;
59089;SDS011;44878;50.102;18.982;2023-03-14T06:56:44;7.05;;;4.65;;
59089;SDS011;44878;50.102;18.982;2023-03-14T06:59:10;8.27;;;5.10;;
59089;SDS011;44878;50.102;18.982;2023-03-14T07:01:36;6.32;;;4.47;;
59089;SDS011;44878;50.102;18.982;2023-03-14T07:04:02;7.38;;;4.60;;
59089;SDS011;44878;50.102;18.982;2023-03-14T07:06:28;6.75;;;4.20;;
59089;SDS011;44878;50.102;18.982;2023-03-14T07:08:56;7.47;;;4.10;;
59089;SDS011;44878;50.102;18.982;2023-03-14T07:11:23;6.30;;;4.60;;
59089;SDS011;44878;50.102;18.982;2023-03-14T07:13:49;7.50;;;4.53;;
59089;SDS011;44878;50.102;18.982;2023-03-14T07:16:15;7.50;;;4.32;;
59089;SDS011;44878;50.102;18.982;2023-03-14T07:18:40;8.07;;;4.30;;
59089;SDS011;44878;50.102;18.982;2023-03-14T07:21:07;7.68;;;4.88;;
59089;SDS011;44878;50.102;18.982;2023-03-14T07:23:34;7.15;;;4.65;;
59089;SDS011;44878;50.102;18.982;2023-03-14T07:26:00;8.30;;;4.63;;
59089;SDS011;44878;50.102;18.982;2023-03-14T07:28:26;6.82;;;4.45;;
59089;SDS011;44878;50.102;18.982;2023-03-14T07:30:53;6.10;;;4.40;;
59089;SDS011;44878;50.102;18.982;2023-03-14T07:33:19;5.03;;;4.13;;
59089;SDS011;44878;50.102;18.982;2023-03-14T07:35:48;9.18;;;4.70;;
59089;SDS011;44878;50.102;18.982;2023-03-14T07:38:14;6.03;;;4.15;;
59089;SDS011;44878;50.102;18.982;2023-03-14T07:40:40;7.80;;;4.63;;
59089;SDS011;44878;50.102;18.982;2023-03-14T07:43:06;8.10;;;4.68;;
59089;SDS011;44878;50.102;18.982;2023-03-14T07:45:33;8.90;;;4.45;;
59089;SDS011;44878;50.102;18.982;2023-03-14T07:47:59;6.88;;;4.72;;
59089;SDS011;44878;50.102;18.982;2023-03-14T07:50:26;6.18;;;4.65;;
59089;SDS011;44878;50.102;18.982;2023-03-14T07:52:51;6.57;;;4.70;;
59089;SDS011;44878;50.102;18.982;2023-03-14T07:55:17;7.35;;;4.78;;
59089;SDS011;44878;50.102;18.982;2023-03-14T07:57:43;10.23;;;5.25;;
59089;SDS011;44878;50.102;18.982;2023-03-14T08:00:09;6.47;;;4.28;;
59089;SDS011;44878;50.102;18.982;2023-03-14T08:02:36;6.28;;;4.88;;
59089;SDS011;44878;50.102;18.982;2023-03-14T08:05:03;6.68;;;4.63;;
59089;SDS011;44878;50.102;18.982;2023-03-14T08:07:29;6.97;;;4.63;;
59089;SDS011;44878;50.102;18.982;2023-03-14T08:09:55;6.85;;;4.53;;
59089;SDS011;44878;50.102;18.982;2023-03-14T08:12:20;7.47;;;4.90;;
59089;SDS011;44878;50.102;18.982;2023-03-14T08:14:46;7.65;;;4.35;;
59089;SDS011;44878;50.102;18.982;2023-03-14T08:17:12;6.82;;;4.60;;
59089;SDS011;44878;50.102;18.982;2023-03-14T08:19:38;7.20;;;4.68;;
59089;SDS011;44878;50.102;18.982;2023-03-14T08:22:06;6.80;;;4.70;;
59089;SDS011;44878;50.102;18.982;2023-03-14T08:24:32;6.57;;;4.93;;
59089;SDS011;44878;50.102;18.982;2023-03-14T08:26:57;9.07;;;4.97;;
59089;SDS011;44878;50.102;18.982;2023-03-14T08:29:23;5.32;;;4.03;;
59089;SDS011;44878;50.102;18.982;2023-03-14T08:31:49;6.55;;;4.70;;
59089;SDS011;44878;50.102;18.982;2023-03-14T08:34:15;6.25;;;4.18;;
59089;SDS011;44878;50.102;18.982;2023-03-14T08:36:41;6.90;;;4.47;;
59089;SDS011;44878;50.102;18.982;2023-03-14T08:39:08;9.35;;;4.22;;
59089;SDS011;44878;50.102;18.982;2023-03-14T08:41:34;6.88;;;4.45;;
59089;SDS011;44878;50.102;18.982;2023-03-14T08:44:06;8.57;;;4.43;;
59089;SDS011;44878;50.102;18.982;2023-03-14T08:46:32;6.00;;;4.25;;
59089;SDS011;44878;50.102;18.982;2023-03-14T08:48:58;6.30;;;4.15;;
59089;SDS011;44878;50.102;18.982;2023-03-14T08:51:23;6.57;;;4.15;;
59089;SDS011;44878;50.102;18.982;2023-03-14T08:53:50;8.40;;;4.10;;
59089;SDS011;44878;50.102;18.982;2023-03-14T08:56:15;6.43;;;4.35;;
59089;SDS011;44878;50.102;18.982;2023-03-14T08:58:42;6.10;;;4.40;;
59089;SDS011;44878;50.102;18.982;2023-03-14T09:01:09;6.18;;;4.30;;
59089;SDS011;44878;50.102;18.982;2023-03-14T09:03:35;7.25;;;4.43;;
59089;SDS011;44878;50.102;18.982;2023-03-14T09:06:01;8.23;;;5.22;;
59089;SDS011;44878;50.102;18.982;2023-03-14T09:08:29;7.70;;;4.63;;
59089;SDS011;44878;50.102;18.982;2023-03-14T09:10:54;8.13;;;4.43;;
59089;SDS011;44878;50.102;18.982;2023-03-14T09:13:20;6.78;;;4.70;;
59089;SDS011;44878;50.102;18.982;2023-03-14T09:15:50;7.65;;;4.05;;
59089;SDS011;44878;50.102;18.982;2023-03-14T09:18:16;8.80;;;4.70;;
59089;SDS011;44878;50.102;18.982;2023-03-14T09:20:42;7.28;;;4.60;;
59089;SDS011;44878;50.102;18.982;2023-03-14T09:23:08;6.43;;;4.45;;
59089;SDS011;44878;50.102;18.982;2023-03-14T09:25:33;6.38;;;4.38;;
59089;SDS011;44878;50.102;18.982;2023-03-14T09:27:59;7.95;;;4.55;;
59089;SDS011;44878;50.102;18.982;2023-03-14T09:30:25;6.32;;;4.07;;
59089;SDS011;44878;50.102;18.982;2023-03-14T09:32:54;6.63;;;4.05;;
59089;SDS011;44878;50.102;18.982;2023-03-14T09:35:20;8.93;;;5.70;;
59089;SDS011;44878;50.102;18.982;2023-03-14T09:37:46;6.82;;;4.20;;
59089;SDS011;44878;50.102;18.982;2023-03-14T09:40:12;6.88;;;3.90;;
59089;SDS011;44878;50.102;18.982;2023-03-14T09:42:39;8.57;;;4.53;;
59089;SDS011;44878;50.102;18.982;2023-03-14T09:45:06;6.33;;;4.03;;
59089;SDS011;44878;50.102;18.982;2023-03-14T09:47:36;8.45;;;4.40;;
59089;SDS011;44878;50.102;18.982;2023-03-14T09:50:01;6.22;;;4.03;;
59089;SDS011;44878;50.102;18.982;2023-03-14T09:52:32;6.30;;;3.90;;
59089;SDS011;44878;50.102;18.982;2023-03-14T09:55:03;6.85;;;3.88;;
59089;SDS011;44878;50.102;18.982;2023-03-14T09:57:30;6.28;;;4.07;;
59089;SDS011;44878;50.102;18.982;2023-03-14T10:02:24;7.90;;;4.50;;
59089;SDS011;44878;50.102;18.982;2023-03-14T10:04:51;5.65;;;4.15;;
59089;SDS011;44878;50.102;18.982;2023-03-14T10:07:19;9.52;;;4.43;;
59089;SDS011;44878;50.102;18.982;2023-03-14T10:09:50;6.75;;;4.00;;
59089;SDS011;44878;50.102;18.982;2023-03-14T10:12:16;6.85;;;4.03;;
59089;SDS011;44878;50.102;18.982;2023-03-14T10:14:47;5.85;;;3.80;;
59089;SDS011;44878;50.102;18.982;2023-03-14T10:17:13;6.40;;;3.95;;
59089;SDS011;44878;50.102;18.982;2023-03-14T10:19:51;5.78;;;4.13;;
59089;SDS011;44878;50.102;18.982;2023-03-14T10:22:18;8.13;;;4.03;;
59089;SDS011;44878;50.102;18.982;2023-03-14T10:24:55;7.95;;;4.10;;
59089;SDS011;44878;50.102;18.982;2023-03-14T10:27:27;6.10;;;3.75;;
59089;SDS011;44878;50.102;18.982;2023-03-14T10:29:55;6.47;;;4.10;;
59089;SDS011;44878;50.102;18.982;2023-03-14T10:32:22;5.82;;;3.70;;
59089;SDS011;44878;50.102;18.982;2023-03-14T10:35:04;6.75;;;3.30;;
59089;SDS011;44878;50.102;18.982;2023-03-14T10:37:36;5.20;;;3.55;;
59089;SDS011;44878;50.102;18.982;2023-03-14T10:40:13;5.57;;;3.85;;
59089;SDS011;44878;50.102;18.982;2023-03-14T10:42:40;4.82;;;3.20;;
59089;SDS011;44878;50.102;18.982;2023-03-14T10:47:52;5.75;;;4.07;;
59089;SDS011;44878;50.102;18.982;2023-03-14T10:50:28;6.97;;;4.40;;
59089;SDS011;44878;50.102;18.982;2023-03-14T10:52:55;6.30;;;3.80;;
59089;SDS011;44878;50.102;18.982;2023-03-14T10:55:22;6.47;;;3.80;;
59089;SDS011;44878;50.102;18.982;2023-03-14T10:57:49;5.93;;;4.95;;
59089;SDS011;44878;50.102;18.982;2023-03-14T11:00:18;6.20;;;3.65;;
59089;SDS011;44878;50.102;18.982;2023-03-14T11:07:43;4.88;;;3.17;;
59089;SDS011;44878;50.102;18.982;2023-03-14T11:10:31;5.13;;;3.50;;
59089;SDS011;44878;50.102;18.982;2023-03-14T11:23:58;7.25;;;4.53;;
59089;SDS011;44878;50.102;18.982;2023-03-14T11:29:39;6.05;;;3.70;;
59089;SDS011;44878;50.102;18.982;2023-03-14T11:31:44;7.18;;;3.78;;
59089;SDS011;44878;50.102;18.982;2023-03-14T11:37:04;6.40;;;4.32;;
59089;SDS011;44878;50.102;18.982;2023-03-14T11:39:36;7.03;;;4.72;;
59089;SDS011;44878;50.102;18.982;2023-03-14T11:42:03;6.63;;;4.10;;
59089;SDS011;44878;50.102;18.982;2023-03-14T11:44:34;8.35;;;5.00;;
59089;SDS011;44878;50.102;18.982;2023-03-14T11:47:10;7.63;;;4.95;;
59089;SDS011;44878;50.102;18.982;2023-03-14T11:49:43;7.30;;;4.80;;
59089;SDS011;44878;50.102;18.982;2023-03-14T11:52:13;10.35;;;4.90;;
59089;SDS011;44878;50.102;18.982;2023-03-14T11:57:15;8.75;;;5.30;;
59089;SDS011;44878;50.102;18.982;2023-03-14T12:02:31;9.40;;;5.22;;
59089;SDS011;44878;50.102;18.982;2023-03-14T12:10:35;8.75;;;5.53;;
59089;SDS011;44878;50.102;18.982;2023-03-14T12:13:02;7.03;;;5.22;;
59089;SDS011;44878;50.102;18.982;2023-03-14T12:15:27;8.57;;;5.20;;
59089;SDS011;44878;50.102;18.982;2023-03-14T12:17:54;14.25;;;5.70;;
59089;SDS011;44878;50.102;18.982;2023-03-14T12:20:21;8.88;;;5.10;;
59089;SDS011;44878;50.102;18.982;2023-03-14T12:22:49;8.25;;;5.22;;
59089;SDS011;44878;50.102;18.982;2023-03-14T12:25:19;9.65;;;5.47;;
59089;SDS011;44878;50.102;18.982;2023-03-14T12:27:47;8.30;;;5.88;;
59089;SDS011;44878;50.102;18.982;2023-03-14T12:30:18;8.23;;;5.40;;
59089;SDS011;44878;50.102;18.982;2023-03-14T12:43:42;9.02;;;5.80;;
59089;SDS011;44878;50.102;18.982;2023-03-14T12:48:44;9.43;;;5.18;;
59089;SDS011;44878;50.102;18.982;2023-03-14T12:51:19;8.23;;;5.53;;
59089;SDS011;44878;50.102;18.982;2023-03-14T13:01:24;9.18;;;5.60;;
59089;SDS011;44878;50.102;18.982;2023-03-14T13:03:51;8.15;;;4.90;;
59089;SDS011;44878;50.102;18.982;2023-03-14T13:11:47;7.53;;;4.78;;
59089;SDS011;44878;50.102;18.982;2023-03-14T13:14:13;7.18;;;4.40;;
59089;SDS011;44878;50.102;18.982;2023-03-14T13:16:39;8.50;;;5.20;;
59089;SDS011;44878;50.102;18.982;2023-03-14T13:19:14;7.50;;;4.70;;
59089;SDS011;44878;50.102;18.982;2023-03-14T13:21:41;6.10;;;4.22;;
59089;SDS011;44878;50.102;18.982;2023-03-14T13:24:20;6.38;;;4.63;;
59089;SDS011;44878;50.102;18.982;2023-03-14T13:26:47;6.43;;;4.28;;
59089;SDS011;44878;50.102;18.982;2023-03-14T13:29:20;8.18;;;3.80;;
59089;SDS011;44878;50.102;18.982;2023-03-14T13:31:47;4.85;;;3.40;;
59089;SDS011;44878;50.102;18.982;2023-03-14T13:34:14;4.20;;;3.00;;
59089;SDS011;44878;50.102;18.982;2023-03-14T13:36:39;5.50;;;2.92;;
59089;SDS011;44878;50.102;18.982;2023-03-14T13:39:22;6.32;;;3.17;;
59089;SDS011;44878;50.102;18.982;2023-03-14T13:41:50;6.03;;;3.72;;
59089;SDS011;44878;50.102;18.982;2023-03-14T13:47:02;5.00;;;3.25;;
59089;SDS011;44878;50.102;18.982;2023-03-14T13:49:28;4.88;;;2.78;;
59089;SDS011;44878;50.102;18.982;2023-03-14T13:51:56;6.88;;;3.67;;
59089;SDS011;44878;50.102;18.982;2023-03-14T13:54:22;6.90;;;3.80;;
59089;SDS011;44878;50.102;18.982;2023-03-14T13:59:23;6.35;;;3.95;;
59089;SDS011;44878;50.102;18.982;2023-03-14T14:01:49;6.93;;;3.90;;
59089;SDS011;44878;50.102;18.982;2023-03-14T14:04:16;5.15;;;3.72;;
59089;SDS011;44878;50.102;18.982;2023-03-14T14:06:45;5.72;;;3.80;;
59089;SDS011;44878;50.102;18.982;2023-03-14T14:09:14;6.90;;;3.75;;
59089;SDS011;44878;50.102;18.982;2023-03-14T14:11:46;6.22;;;3.88;;
59089;SDS011;44878;50.102;18.982;2023-03-14T14:14:21;6.15;;;3.97;;
59089;SDS011;44878;50.102;18.982;2023-03-14T14:16:49;7.75;;;4.30;;
59089;SDS011;44878;50.102;18.982;2023-03-14T14:19:18;6.88;;;4.28;;
59089;SDS011;44878;50.102;18.982;2023-03-14T14:21:45;8.23;;;5.00;;
59089;SDS011;44878;50.102;18.982;2023-03-14T14:24:12;10.07;;;5.35;;
59089;SDS011;44878;50.102;18.982;2023-03-14T14:26:46;9.07;;;5.32;;
59089;SDS011;44878;50.102;18.982;2023-03-14T14:29:20;8.82;;;5.22;;
59089;SDS011;44878;50.102;18.982;2023-03-14T14:31:58;8.48;;;5.00;;
59089;SDS011;44878;50.102;18.982;2023-03-14T14:34:24;6.68;;;4.63;;
59089;SDS011;44878;50.102;18.982;2023-03-14T14:36:52;8.13;;;4.50;;
59089;SDS011;44878;50.102;18.982;2023-03-14T14:41:44;5.07;;;3.65;;
59089;SDS011;44878;50.102;18.982;2023-03-14T14:44:13;5.70;;;3.30;;
59089;SDS011;44878;50.102;18.982;2023-03-14T14:46:41;4.65;;;3.25;;
59089;SDS011;44878;50.102;18.982;2023-03-14T14:49:15;6.53;;;3.35;;
59089;SDS011;44878;50.102;18.982;2023-03-14T14:51:44;5.38;;;3.30;;
59089;SDS011;44878;50.102;18.982;2023-03-14T14:54:19;5.45;;;3.35;;
59089;SDS011;44878;50.102;18.982;2023-03-14T14:56:46;5.38;;;3.20;;
59089;SDS011;44878;50.102;18.982;2023-03-14T14:59:23;6.20;;;3.25;;
59089;SDS011;44878;50.102;18.982;2023-03-14T15:01:49;5.50;;;3.70;;
59089;SDS011;44878;50.102;18.982;2023-03-14T15:04:20;5.10;;;3.70;;
59089;SDS011;44878;50.102;18.982;2023-03-14T15:06:46;5.18;;;3.90;;
59089;SDS011;44878;50.102;18.982;2023-03-14T15:11:39;4.68;;;3.45;;
59089;SDS011;44878;50.102;18.982;2023-03-14T15:14:05;5.85;;;3.45;;
59089;SDS011;44878;50.102;18.982;2023-03-14T15:16:32;5.32;;;3.50;;
59089;SDS011;44878;50.102;18.982;2023-03-14T15:18:59;4.40;;;3.28;;
59089;SDS011;44878;50.102;18.982;2023-03-14T15:21:26;5.97;;;3.95;;
59089;SDS011;44878;50.102;18.982;2023-03-14T15:23:52;4.18;;;3.50;;
59089;SDS011;44878;50.102;18.982;2023-03-14T15:26:20;4.57;;;3.28;;
59089;SDS011;44878;50.102;18.982;2023-03-14T15:28:46;5.63;;;3.67;;
59089;SDS011;44878;50.102;18.982;2023-03-14T15:31:12;4.20;;;3.22;;
59089;SDS011;44878;50.102;18.982;2023-03-14T15:33:39;4.77;;;3.73;;
59089;SDS011;44878;50.102;18.982;2023-03-14T15:38:46;6.40;;;5.20;;
59089;SDS011;44878;50.102;18.982;2023-03-14T15:41:12;6.95;;;4.38;;
59089;SDS011;44878;50.102;18.982;2023-03-14T15:43:38;6.15;;;4.47;;
59089;SDS011;44878;50.102;18.982;2023-03-14T15:46:04;6.10;;;4.05;;
59089;SDS011;44878;50.102;18.982;2023-03-14T15:48:32;5.95;;;4.60;;
59089;SDS011;44878;50.102;18.982;2023-03-14T15:50:57;5.65;;;4.70;;
59089;SDS011;44878;50.102;18.982;2023-03-14T15:53:23;8.18;;;5.03;;
59089;SDS011;44878;50.102;18.982;2023-03-14T15:55:49;5.20;;;3.95;;
59089;SDS011;44878;50.102;18.982;2023-03-14T15:58:17;8.40;;;5.25;;
59089;SDS011;44878;50.102;18.982;2023-03-14T16:00:43;7.00;;;5.10;;